createdAt,value
2019-02-27T00:00:09.195Z,99.90
2019-02-27T00:01:50.404Z,99.90
2019-02-27T00:03:28.897Z,99.90
2019-02-27T00:05:05.898Z,99.90
2019-02-27T00:06:40.913Z,99.90
2019-02-27T00:08:15.719Z,99.90
2019-02-27T00:09:50.438Z,99.90
2019-02-27T00:11:25.158Z,99.90
2019-02-27T00:12:59.925Z,99.90
2019-02-27T00:14:34.641Z,99.90
2019-02-27T00:16:11.137Z,99.90
2019-02-27T00:17:45.885Z,99.90
2019-02-27T00:19:20.606Z,99.90
2019-02-27T00:20:55.358Z,99.90
2019-02-27T00:22:30.170Z,99.90
2019-02-27T00:24:05.149Z,99.90
2019-02-27T00:25:39.945Z,99.90
2019-02-27T00:27:15.259Z,99.90
2019-02-27T00:28:50.241Z,99.90
2019-02-27T00:30:25.066Z,99.90
2019-02-27T00:31:59.804Z,99.90
2019-02-27T00:33:34.825Z,99.90
2019-02-27T00:35:09.681Z,99.90
2019-02-27T00:36:45.156Z,99.90
2019-02-27T00:38:22.747Z,99.90
2019-02-27T00:39:56.965Z,99.90
2019-02-27T00:41:31.793Z,99.90
2019-02-27T00:43:06.787Z,99.90
2019-02-27T00:44:41.633Z,99.90
2019-02-27T00:46:16.445Z,99.90
2019-02-27T00:47:53.253Z,99.90
2019-02-27T00:49:29.875Z,99.90
2019-02-27T00:51:04.146Z,99.90
2019-02-27T00:52:38.965Z,99.90
2019-02-27T00:54:13.765Z,99.90
2019-02-27T00:55:48.510Z,99.90
2019-02-27T00:57:23.310Z,99.90
2019-02-27T00:59:00.209Z,99.90
2019-02-27T01:00:39.091Z,99.90
2019-02-27T01:02:10.994Z,99.90
2019-02-27T01:03:45.714Z,99.90
2019-02-27T01:05:20.545Z,99.90
2019-02-27T01:06:55.408Z,99.90
2019-02-27T01:08:30.137Z,99.90
2019-02-27T01:10:05.989Z,99.90
2019-02-27T01:11:40.948Z,99.90
2019-02-27T01:13:16.826Z,99.90
2019-02-27T01:14:51.557Z,99.90
2019-02-27T01:16:26.275Z,99.90
2019-02-27T01:18:01.026Z,99.90
2019-02-27T01:19:38.488Z,99.90
2019-02-27T01:21:12.138Z,99.90
2019-02-27T01:22:46.866Z,99.90
2019-02-27T01:24:21.697Z,99.90
2019-02-27T01:25:57.128Z,99.90
2019-02-27T01:27:32.049Z,99.90
2019-02-27T01:29:06.798Z,99.90
2019-02-27T01:30:41.613Z,99.90
2019-02-27T01:32:16.432Z,99.90
2019-02-27T01:33:51.290Z,99.90
2019-02-27T01:35:26.422Z,99.90
2019-02-27T01:37:01.142Z,99.90
2019-02-27T01:38:38.081Z,99.90
2019-02-27T01:40:17.370Z,99.90
2019-02-27T01:41:49.592Z,99.90
2019-02-27T01:43:24.322Z,99.90
2019-02-27T01:44:59.041Z,99.90
2019-02-27T01:46:33.781Z,99.90
2019-02-27T01:48:09.194Z,99.90
2019-02-27T01:49:48.904Z,99.90
2019-02-27T01:51:20.990Z,99.90
2019-02-27T01:52:55.746Z,99.90
2019-02-27T01:54:30.558Z,99.90
2019-02-27T01:56:05.349Z,99.90
2019-02-27T01:57:40.091Z,99.90
2019-02-27T01:59:16.787Z,99.90
2019-02-27T02:00:51.242Z,99.90
2019-02-27T02:02:26.006Z,99.90
2019-02-27T02:04:01.073Z,99.90
2019-02-27T02:05:35.870Z,99.90
2019-02-27T02:07:10.928Z,99.90
2019-02-27T02:08:48.025Z,99.90
2019-02-27T02:10:22.397Z,99.90
2019-02-27T02:11:57.106Z,99.90
2019-02-27T04:32:24.302Z,99.90
2019-02-27T04:34:00.348Z,99.90
2019-02-27T04:35:39.209Z,99.90
2019-02-27T04:37:13.069Z,99.90
2019-02-27T04:38:47.785Z,99.90
2019-02-27T04:40:22.507Z,99.90
2019-02-27T04:41:57.494Z,99.90
2019-02-27T04:43:32.776Z,99.90
2019-02-27T04:45:09.904Z,99.90
2019-02-27T04:46:45.553Z,99.90
2019-02-27T04:48:20.266Z,99.90
2019-02-27T04:49:54.993Z,99.90
2019-02-27T04:51:29.799Z,99.90
2019-02-27T04:53:04.610Z,99.90
2019-02-27T04:54:41.564Z,99.90
2019-02-27T04:56:15.810Z,99.90
2019-02-27T04:57:50.546Z,99.90
2019-02-27T04:59:25.289Z,99.90
2019-02-27T05:01:02.131Z,99.90
2019-02-27T05:02:36.841Z,99.90
2019-02-27T05:04:11.634Z,99.90
2019-02-27T05:05:46.361Z,99.90
2019-02-27T05:07:21.123Z,99.90
2019-02-27T05:08:59.710Z,99.90
2019-02-27T05:10:33.818Z,99.90
2019-02-27T05:12:08.757Z,99.90
2019-02-27T05:13:43.664Z,99.90
2019-02-27T05:15:18.465Z,99.90
2019-02-27T05:16:54.221Z,99.90
2019-02-27T05:18:29.502Z,99.90
2019-02-27T05:20:05.301Z,99.90
2019-02-27T05:21:41.054Z,99.90
2019-02-27T05:23:15.842Z,99.90
2019-02-27T05:24:50.724Z,99.90
2019-02-27T05:26:27.265Z,99.90
2019-02-27T05:28:02.092Z,99.90
2019-02-27T05:29:37.580Z,99.90
2019-02-27T05:31:13.031Z,99.90
2019-02-27T05:32:47.769Z,99.90
2019-02-27T05:34:22.522Z,99.90
2019-02-27T05:35:57.798Z,99.90
2019-02-27T05:37:32.618Z,99.90
2019-02-27T05:39:07.841Z,99.90
2019-02-27T05:40:43.286Z,99.90
2019-02-27T05:42:18.018Z,99.90
2019-02-27T05:43:52.809Z,99.90
2019-02-27T05:45:30.410Z,99.90
2019-02-27T05:47:04.125Z,99.90
2019-02-27T05:48:38.853Z,99.90
2019-02-27T05:50:13.798Z,99.90
2019-02-27T05:51:48.637Z,99.90
2019-02-27T05:53:23.357Z,99.90
2019-02-27T05:54:58.077Z,99.90
2019-02-27T05:56:32.791Z,99.90
2019-02-27T05:58:07.573Z,99.90
2019-02-27T05:59:42.386Z,99.90
2019-02-27T06:01:17.130Z,99.90
2019-02-27T06:02:51.923Z,99.90
2019-02-27T06:04:26.683Z,99.90
2019-02-27T06:06:01.452Z,99.90
2019-02-27T06:07:36.263Z,99.90
2019-02-27T06:09:11.118Z,99.90
2019-02-27T06:10:45.931Z,99.90
2019-02-27T06:12:20.759Z,99.90
2019-02-27T06:13:55.550Z,99.90
2019-02-27T06:15:30.822Z,99.90
2019-02-27T06:17:05.623Z,99.90
2019-02-27T06:18:41.422Z,99.90
2019-02-27T06:20:16.285Z,99.90
2019-02-27T06:21:51.051Z,99.90
2019-02-27T06:23:25.958Z,99.90
2019-02-27T06:25:00.781Z,99.90
2019-02-27T06:26:35.485Z,99.90
2019-02-27T06:28:10.286Z,99.90
2019-02-27T06:29:44.999Z,99.90
2019-02-27T06:31:19.745Z,99.90
2019-02-27T06:32:54.529Z,99.90
2019-02-27T06:34:29.246Z,99.90
2019-02-27T06:36:05.393Z,99.90
2019-02-27T06:37:40.561Z,99.90
2019-02-27T06:39:15.929Z,99.90
2019-02-27T06:40:50.649Z,99.90
2019-02-27T06:42:25.569Z,99.90
2019-02-27T06:44:01.508Z,99.90
2019-02-27T06:45:37.039Z,99.90
2019-02-27T06:47:11.778Z,99.90
2019-02-27T06:48:46.588Z,99.90
2019-02-27T06:50:25.223Z,99.90
2019-02-27T06:51:57.786Z,99.90
2019-02-27T06:53:32.518Z,99.90
2019-02-27T06:55:07.813Z,99.90
2019-02-27T06:56:42.534Z,99.90
2019-02-27T06:58:17.357Z,99.90
2019-02-27T06:59:52.156Z,99.90
2019-02-27T07:01:26.954Z,99.90
2019-02-27T07:03:01.702Z,99.90
2019-02-27T07:04:39.341Z,99.90
2019-02-27T07:06:12.923Z,99.90
2019-02-27T07:07:47.865Z,99.90
2019-02-27T07:09:22.626Z,99.90
2019-02-27T07:11:07.207Z,99.90
2019-02-27T07:12:33.994Z,99.90
2019-02-27T07:14:08.726Z,99.90
2019-02-27T07:15:47.906Z,99.90
2019-02-27T07:17:21.083Z,99.90
2019-02-27T07:18:55.865Z,99.90
2019-02-27T07:20:30.593Z,99.90
2019-02-27T07:22:06.271Z,99.90
2019-02-27T07:23:41.795Z,99.90
2019-02-27T07:25:16.606Z,99.90
2019-02-27T07:26:51.427Z,99.90
2019-02-27T07:28:26.301Z,99.90
2019-02-27T07:30:01.016Z,99.90
2019-02-27T07:31:35.874Z,99.90
2019-02-27T07:33:10.698Z,99.90
2019-02-27T07:34:46.704Z,99.90
2019-02-27T07:36:21.889Z,99.90
2019-02-27T07:37:56.655Z,99.90
2019-02-27T07:39:32.786Z,99.90
2019-02-27T07:41:07.901Z,99.90
2019-02-27T07:42:42.709Z,99.90
2019-02-27T07:44:17.575Z,99.90
2019-02-27T07:45:54.270Z,99.90
2019-02-27T07:47:28.873Z,99.90
2019-02-27T07:49:04.022Z,99.90
2019-02-27T07:50:38.754Z,99.90
2019-02-27T07:52:14.439Z,99.90
2019-02-27T07:53:51.451Z,99.90
2019-02-27T07:55:28.378Z,99.90
2019-02-27T07:57:02.100Z,99.90
2019-02-27T07:58:37.832Z,99.90
2019-02-27T08:00:15.769Z,99.90
2019-02-27T08:01:50.569Z,99.90
2019-02-27T08:03:25.314Z,99.90
2019-02-27T08:05:00.058Z,99.90
2019-02-27T08:06:35.092Z,99.90
2019-02-27T08:08:11.277Z,99.90
2019-02-27T08:09:46.124Z,99.90
2019-02-27T08:11:20.845Z,99.90
2019-02-27T08:12:56.561Z,99.90
2019-02-27T08:14:31.549Z,99.90
2019-02-27T08:16:06.310Z,99.90
2019-02-27T08:17:41.234Z,99.90
2019-02-27T08:19:16.065Z,99.90
2019-02-27T08:20:54.211Z,99.90
2019-02-27T08:22:28.354Z,99.90
2019-02-27T08:24:06.699Z,99.90
2019-02-27T08:25:39.556Z,99.90
2019-02-27T08:27:14.343Z,99.90
2019-02-27T08:28:49.070Z,99.90
2019-02-27T08:30:23.965Z,99.90
2019-02-27T08:32:00.726Z,99.90
2019-02-27T08:33:35.116Z,99.90
2019-02-27T08:35:10.199Z,99.90
2019-02-27T08:36:44.910Z,99.90
2019-02-27T08:38:19.638Z,99.90
2019-02-27T08:39:54.358Z,99.90
2019-02-27T08:41:31.511Z,99.90
2019-02-27T08:43:05.641Z,99.90
2019-02-27T08:44:43.004Z,99.90
2019-02-27T08:46:16.862Z,99.90
2019-02-27T08:47:51.590Z,99.90
2019-02-27T08:49:26.394Z,99.90
2019-02-27T08:51:05.714Z,99.90
2019-02-27T08:52:37.554Z,99.90
2019-02-27T08:54:12.325Z,99.90
2019-02-27T08:55:47.113Z,99.90
2019-02-27T08:57:21.936Z,99.90
2019-02-27T08:58:56.838Z,99.90
2019-02-27T09:00:31.918Z,99.90
2019-02-27T09:02:08.807Z,99.90
2019-02-27T09:03:43.662Z,99.90
2019-02-27T09:05:20.041Z,99.90
2019-02-27T09:06:55.110Z,99.90
2019-02-27T09:08:31.432Z,99.90
2019-02-27T09:10:07.432Z,99.90
2019-02-27T09:11:43.285Z,99.90
2019-02-27T09:13:18.021Z,99.90
2019-02-27T09:14:52.780Z,99.90
2019-02-27T09:16:27.577Z,99.90
2019-02-27T09:18:02.522Z,99.90
2019-02-27T09:19:37.411Z,99.90
2019-02-27T09:21:12.202Z,99.90
2019-02-27T09:22:47.083Z,99.90
2019-02-27T09:24:21.875Z,99.90
2019-02-27T09:25:57.400Z,99.90
2019-02-27T09:27:32.974Z,99.90
2019-02-27T09:29:08.915Z,99.90
2019-02-27T09:30:43.637Z,99.90
2019-02-27T09:32:20.384Z,99.90
2019-02-27T09:33:54.878Z,99.90
2019-02-27T09:35:32.537Z,99.90
2019-02-27T09:37:06.026Z,99.90
2019-02-27T09:38:40.759Z,97.20
2019-02-27T09:40:17.241Z,96.30
2019-02-27T09:41:52.178Z,96.50
2019-02-27T09:43:27.230Z,96.10
2019-02-27T09:45:02.725Z,95.60
2019-02-27T09:46:38.134Z,94.80
2019-02-27T09:48:12.957Z,93.80
2019-02-27T09:49:47.842Z,94.10
2019-02-27T09:51:22.902Z,94.40
2019-02-27T09:53:01.093Z,94.10
2019-02-27T09:54:35.218Z,94.50
2019-02-27T09:56:11.593Z,93.40
2019-02-27T09:57:46.649Z,93.90
2019-02-27T09:59:21.559Z,93.90
2019-02-27T10:01:01.475Z,93.60
2019-02-27T10:02:35.811Z,93.30
2019-02-27T10:04:10.649Z,93.80
2019-02-27T10:05:45.729Z,92.60
2019-02-27T10:07:20.498Z,92.60
2019-02-27T10:08:56.510Z,91.80
2019-02-27T10:10:32.146Z,92.00
2019-02-27T10:12:06.951Z,91.50
2019-02-27T10:13:41.752Z,90.80
2019-02-27T10:15:16.550Z,91.10
2019-02-27T10:16:51.279Z,90.80
2019-02-27T10:18:25.995Z,90.20
2019-02-27T10:20:02.577Z,89.20
2019-02-27T10:21:38.341Z,90.40
2019-02-27T10:23:13.072Z,90.70
2019-02-27T10:24:47.796Z,90.20
2019-02-27T10:26:23.542Z,90.50
2019-02-27T10:28:03.249Z,89.60
2019-02-27T10:29:34.873Z,90.40
2019-02-27T10:31:09.682Z,89.50
2019-02-27T10:32:45.145Z,89.50
2019-02-27T10:34:19.985Z,88.40
2019-02-27T10:35:55.041Z,88.60
2019-02-27T10:37:29.864Z,88.80
2019-02-27T10:39:06.364Z,89.60
2019-02-27T10:40:41.671Z,88.90
2019-02-27T10:42:16.474Z,87.90
2019-02-27T10:43:53.920Z,87.70
2019-02-27T10:45:27.830Z,87.40
2019-02-27T10:47:02.605Z,86.80
2019-02-27T10:48:37.692Z,86.30
2019-02-27T10:50:12.658Z,86.10
2019-02-27T10:51:47.402Z,86.70
2019-02-27T10:53:26.726Z,87.30
2019-02-27T10:54:58.626Z,86.80
2019-02-27T10:56:33.415Z,86.70
2019-02-27T10:58:13.017Z,87.10
2019-02-27T10:59:44.612Z,87.70
2019-02-27T11:01:19.572Z,86.80
2019-02-27T11:02:54.431Z,87.20
2019-02-27T11:04:29.166Z,87.70
2019-02-27T11:06:04.073Z,89.00
2019-02-27T11:07:39.002Z,89.10
2019-02-27T11:09:28.075Z,90.00
2019-02-27T11:11:02.930Z,90.40
2019-02-27T11:12:37.874Z,89.60
2019-02-27T11:14:12.721Z,89.90
2019-02-27T11:15:47.531Z,90.20
2019-02-27T11:17:22.249Z,90.10
2019-02-27T11:18:57.337Z,90.80
2019-02-27T11:20:32.223Z,91.10
2019-02-27T11:22:06.991Z,90.50
2019-02-27T11:23:41.833Z,90.80
2019-02-27T11:25:22.283Z,91.10
2019-02-27T11:26:54.258Z,91.10
2019-02-27T11:28:29.064Z,91.50
2019-02-27T11:30:04.053Z,91.60
2019-02-27T11:31:42.330Z,91.30
2019-02-27T11:33:25.666Z,91.30
2019-02-27T11:34:53.383Z,91.40
2019-02-27T11:36:28.122Z,92.00
2019-02-27T11:38:03.031Z,91.30
2019-02-27T11:39:37.811Z,91.10
2019-02-27T11:41:14.921Z,91.90
2019-02-27T11:42:49.100Z,91.50
2019-02-27T11:44:23.845Z,91.80
2019-02-27T11:45:58.734Z,91.70
2019-02-27T11:47:34.100Z,92.20
2019-02-27T11:49:09.946Z,92.30
2019-02-27T11:50:44.817Z,93.00
2019-02-27T11:52:19.627Z,92.00
2019-02-27T11:53:54.334Z,92.20
2019-02-27T11:55:29.150Z,91.40
2019-02-27T11:57:03.987Z,92.10
2019-02-27T11:58:39.164Z,91.30
2019-02-27T12:00:21.179Z,91.50
2019-02-27T12:01:56.156Z,91.10
2019-02-27T12:03:31.081Z,91.30
2019-02-27T12:05:06.501Z,91.30
2019-02-27T12:06:42.372Z,91.50
2019-02-27T12:08:18.626Z,92.20
2019-02-27T12:09:53.424Z,91.90
2019-02-27T12:11:28.317Z,91.70
2019-02-27T12:13:03.097Z,91.90
2019-02-27T12:14:37.813Z,92.80
2019-02-27T12:16:15.301Z,92.20
2019-02-27T12:17:49.383Z,91.90
2019-02-27T12:19:24.306Z,92.00
2019-02-27T12:20:59.046Z,92.60
2019-02-27T12:22:35.328Z,92.90
2019-02-27T12:24:10.427Z,92.50
2019-02-27T12:25:45.285Z,92.60
2019-02-27T12:27:37.796Z,92.70
2019-02-27T12:28:56.790Z,92.40
2019-02-27T12:30:31.724Z,92.90
2019-02-27T12:32:06.590Z,92.90
2019-02-27T12:33:41.486Z,92.90
2019-02-27T12:35:21.353Z,92.80
2019-02-27T12:36:56.142Z,92.40
2019-02-27T12:38:30.969Z,92.60
2019-02-27T12:40:07.125Z,92.70
2019-02-27T12:41:41.911Z,92.30
2019-02-27T12:43:18.255Z,92.10
2019-02-27T12:44:54.594Z,92.20
2019-02-27T12:46:31.865Z,91.90
2019-02-27T12:48:06.357Z,91.70
2019-02-27T12:49:41.113Z,91.80
2019-02-27T12:51:15.975Z,91.80
2019-02-27T12:52:51.131Z,92.00
2019-02-27T12:54:26.878Z,91.70
2019-02-27T12:56:02.342Z,91.70
2019-02-27T12:57:37.029Z,91.90
2019-02-27T12:59:11.798Z,91.80
2019-02-27T13:00:48.037Z,91.80
2019-02-27T13:02:32.528Z,91.30
2019-02-27T13:03:59.255Z,91.30
2019-02-27T13:05:34.051Z,91.50
2019-02-27T13:07:10.631Z,91.70
2019-02-27T13:08:45.338Z,91.70
2019-02-27T13:10:21.173Z,91.40
2019-02-27T13:11:57.028Z,91.60
2019-02-27T13:13:31.903Z,91.40
2019-02-27T13:15:07.541Z,91.80
2019-02-27T13:16:42.341Z,91.70
2019-02-27T13:18:17.171Z,91.90
2019-02-27T13:19:51.979Z,91.80
2019-02-27T13:21:26.836Z,91.90
2019-02-27T13:23:05.192Z,91.80
2019-02-27T13:24:38.148Z,91.80
2019-02-27T13:26:12.942Z,91.70
2019-02-27T13:27:47.669Z,91.90
2019-02-27T13:29:22.393Z,91.80
2019-02-27T13:30:57.109Z,91.90
2019-02-27T13:32:31.817Z,91.80
2019-02-27T13:34:06.565Z,91.60
2019-02-27T13:35:41.434Z,91.40
2019-02-27T13:37:16.145Z,91.20
2019-02-27T13:38:52.268Z,91.20
2019-02-27T13:40:27.460Z,91.60
2019-02-27T13:42:02.284Z,91.80
2019-02-27T13:43:37.099Z,91.90
2019-02-27T13:45:14.506Z,92.40
2019-02-27T13:46:49.230Z,92.50
2019-02-27T13:48:24.037Z,92.60
2019-02-27T13:49:58.926Z,92.50
2019-02-27T13:51:36.536Z,92.80
2019-02-27T13:53:10.274Z,93.10
2019-02-27T13:54:44.973Z,93.20
2019-02-27T13:56:19.749Z,93.20
2019-02-27T13:57:58.951Z,93.40
2019-02-27T13:59:30.943Z,93.60
2019-02-27T14:01:07.487Z,93.40
2019-02-27T14:02:42.302Z,93.30
2019-02-27T14:04:21.865Z,93.30
2019-02-27T14:05:54.607Z,93.60
2019-02-27T14:07:29.490Z,93.60
2019-02-27T14:09:07.077Z,93.60
2019-02-27T14:10:43.577Z,93.60
2019-02-27T14:12:18.401Z,93.50
2019-02-27T14:13:53.273Z,93.50
2019-02-27T14:15:28.264Z,93.50
2019-02-27T14:17:03.207Z,93.40
2019-02-27T14:18:38.061Z,93.30
2019-02-27T14:20:14.974Z,93.40
2019-02-27T14:21:49.680Z,93.40
2019-02-27T14:23:24.419Z,93.40
2019-02-27T14:24:59.305Z,93.40
2019-02-27T14:26:34.248Z,93.40
2019-02-27T14:28:09.138Z,93.50
2019-02-27T14:29:43.874Z,93.70
2019-02-27T14:31:18.665Z,93.70
2019-02-27T14:32:53.449Z,93.60
2019-02-27T14:34:28.170Z,93.50
2019-02-27T14:36:08.206Z,93.20
2019-02-27T14:37:41.406Z,93.40
2019-02-27T14:39:17.170Z,93.60
2019-02-27T14:40:51.998Z,93.50
2019-02-27T14:42:26.722Z,93.80
2019-02-27T14:44:01.470Z,93.80
2019-02-27T14:45:39.420Z,93.80
2019-02-27T14:47:12.858Z,93.90
2019-02-27T14:48:47.615Z,93.70
2019-02-27T14:50:23.024Z,93.60
2019-02-27T14:51:57.817Z,93.60
2019-02-27T14:53:32.628Z,93.70
2019-02-27T14:55:08.462Z,94.10
2019-02-27T14:56:43.346Z,94.20
2019-02-27T14:58:18.985Z,94.10
2019-02-27T14:59:53.813Z,93.90
2019-02-27T15:01:28.622Z,93.90
2019-02-27T15:03:03.419Z,94.00
2019-02-27T15:04:38.192Z,94.00
2019-02-27T15:06:13.055Z,94.10
2019-02-27T15:07:48.010Z,94.10
2019-02-27T15:09:22.746Z,94.00
2019-02-27T15:10:57.453Z,93.80
2019-02-27T15:12:33.131Z,93.70
2019-02-27T15:14:08.169Z,93.70
2019-02-27T15:15:43.839Z,93.80
2019-02-27T15:17:20.300Z,93.60
2019-02-27T15:18:55.952Z,93.60
2019-02-27T15:20:30.949Z,93.60
2019-02-27T15:22:06.233Z,93.60
2019-02-27T15:23:41.006Z,93.20
2019-02-27T15:25:16.797Z,93.00
2019-02-27T15:26:51.677Z,93.10
2019-02-27T15:28:26.731Z,93.20
2019-02-27T15:30:01.526Z,93.20
2019-02-27T15:31:37.822Z,93.10
2019-02-27T15:33:12.598Z,92.60
2019-02-27T15:34:47.317Z,92.90
2019-02-27T15:36:22.123Z,92.90
2019-02-27T15:37:57.181Z,92.80
2019-02-27T15:39:31.914Z,92.80
2019-02-27T15:41:06.717Z,92.80
2019-02-27T15:42:42.677Z,93.10
2019-02-27T15:44:18.258Z,92.80
2019-02-27T15:45:52.999Z,92.90
2019-02-27T15:47:30.398Z,92.70
2019-02-27T15:49:04.406Z,92.80
2019-02-27T15:50:39.124Z,92.70
2019-02-27T15:52:14.062Z,92.90
2019-02-27T15:53:49.971Z,93.30
2019-02-27T15:55:25.297Z,93.10
2019-02-27T15:57:00.034Z,93.20
2019-02-27T15:58:34.758Z,93.20
2019-02-27T16:00:11.949Z,93.30
2019-02-27T16:01:48.248Z,92.90
2019-02-27T16:03:23.067Z,93.00
2019-02-27T16:04:57.782Z,93.20
2019-02-27T16:06:32.500Z,93.30
2019-02-27T16:08:07.298Z,93.00
2019-02-27T16:09:42.014Z,93.10
2019-02-27T16:11:17.336Z,92.90
2019-02-27T16:12:53.588Z,93.20
2019-02-27T16:14:30.023Z,92.80
2019-02-27T16:16:05.063Z,93.10
2019-02-27T16:17:40.990Z,93.00
2019-02-27T16:19:15.714Z,93.20
2019-02-27T16:20:50.596Z,93.20
2019-02-27T16:22:28.516Z,93.60
2019-02-27T16:24:01.938Z,93.60
2019-02-27T16:25:36.798Z,93.40
2019-02-27T16:27:11.682Z,93.60
2019-02-27T16:28:48.929Z,93.50
2019-02-27T16:30:27.817Z,93.40
2019-02-27T16:32:01.530Z,93.40
2019-02-27T16:33:36.350Z,93.50
2019-02-27T16:35:11.363Z,93.30
2019-02-27T16:36:46.871Z,93.40
2019-02-27T16:38:22.321Z,93.30
2019-02-27T16:39:57.038Z,93.50
2019-02-27T16:41:31.855Z,93.40
2019-02-27T16:43:06.910Z,93.50
2019-02-27T16:44:41.741Z,93.50
2019-02-27T16:46:16.473Z,93.50
2019-02-27T16:47:51.275Z,93.90
2019-02-27T16:49:26.058Z,93.80
2019-02-27T16:51:00.920Z,93.70
2019-02-27T16:52:35.818Z,93.80
2019-02-27T16:54:10.551Z,93.90
2019-02-27T16:55:45.262Z,93.80
2019-02-27T16:57:24.116Z,94.00
2019-02-27T16:58:56.505Z,94.00
2019-02-27T17:00:31.402Z,94.00
2019-02-27T17:02:06.347Z,94.00
2019-02-27T17:03:41.077Z,94.10
2019-02-27T17:05:16.531Z,94.20
2019-02-27T17:06:52.192Z,94.40
2019-02-27T17:08:28.331Z,94.40
2019-02-27T17:10:03.767Z,94.50
2019-02-27T17:11:38.742Z,94.70
2019-02-27T17:13:15.577Z,94.70
2019-02-27T17:14:50.450Z,94.80
2019-02-27T17:16:25.378Z,94.90
2019-02-27T17:18:00.497Z,95.00
2019-02-27T17:19:36.557Z,95.20
2019-02-27T17:21:12.381Z,95.50
2019-02-27T17:22:47.645Z,95.80
2019-02-27T17:24:22.377Z,95.90
2019-02-27T17:25:57.422Z,95.80
2019-02-27T17:27:33.833Z,96.00
2019-02-27T17:29:08.975Z,96.00
2019-02-27T17:30:44.080Z,96.10
2019-02-27T17:32:19.086Z,96.40
2019-02-27T17:33:54.233Z,96.40
2019-02-27T17:35:30.609Z,96.60
2019-02-27T17:37:08.782Z,96.80
2019-02-27T17:38:45.300Z,96.80
2019-02-27T17:40:20.517Z,96.80
2019-02-27T17:41:55.244Z,96.70
2019-02-27T17:43:30.029Z,96.80
2019-02-27T17:45:06.085Z,97.00
2019-02-27T17:46:42.241Z,97.00
2019-02-27T17:48:19.201Z,97.00
2019-02-27T17:49:54.166Z,97.20
2019-02-27T17:51:31.124Z,97.20
2019-02-27T17:53:05.651Z,97.30
2019-02-27T17:54:40.701Z,97.40
2019-02-27T17:56:16.254Z,97.60
2019-02-27T17:57:51.454Z,97.70
2019-02-27T17:59:26.362Z,97.80
2019-02-27T18:01:03.733Z,97.90
2019-02-27T18:02:38.549Z,98.10
2019-02-27T18:04:14.612Z,98.50
2019-02-27T18:05:50.630Z,98.70
2019-02-27T18:07:34.091Z,98.90
2019-02-27T18:09:02.396Z,99.20
2019-02-27T18:10:39.049Z,99.80
2019-02-27T18:12:13.953Z,99.80
2019-02-27T18:13:48.864Z,99.90
2019-02-27T18:15:24.121Z,99.90
2019-02-27T18:17:00.309Z,99.90
2019-02-27T18:18:35.292Z,99.90
2019-02-27T18:20:10.519Z,99.90
2019-02-27T18:21:46.490Z,99.90
2019-02-27T18:23:22.028Z,99.90
2019-02-27T18:24:58.297Z,99.90
2019-02-27T18:26:33.357Z,99.90
2019-02-27T18:28:09.549Z,99.90
2019-02-27T18:29:44.478Z,99.90
2019-02-27T18:31:19.583Z,99.90
2019-02-27T18:32:54.710Z,99.90
2019-02-27T18:34:29.786Z,99.90
2019-02-27T18:36:05.855Z,99.90
2019-02-27T18:37:41.936Z,99.90
2019-02-27T18:39:16.806Z,99.90
2019-02-27T18:40:51.726Z,99.90
2019-02-27T18:42:26.506Z,99.90
2019-02-27T18:44:04.437Z,99.90
2019-02-27T18:45:37.691Z,99.90
2019-02-27T18:47:12.473Z,99.90
2019-02-27T18:48:47.188Z,99.90
2019-02-27T18:50:24.799Z,99.90
2019-02-27T18:51:58.496Z,99.90
2019-02-27T18:53:33.318Z,99.90
2019-02-27T18:55:10.983Z,99.90
2019-02-27T18:56:45.429Z,99.90
2019-02-27T18:58:20.942Z,99.90
2019-02-27T18:59:57.512Z,99.90
2019-02-27T19:01:32.437Z,99.90
2019-02-27T19:03:07.374Z,99.90
2019-02-27T19:04:42.134Z,99.90
2019-02-27T19:06:16.914Z,99.90
2019-02-27T19:07:55.016Z,99.90
2019-02-27T19:09:29.349Z,99.90
2019-02-27T19:11:05.229Z,99.90
2019-02-27T19:12:40.155Z,99.90
2019-02-27T19:14:15.014Z,99.90
2019-02-27T19:15:49.947Z,99.90
2019-02-27T19:17:29.022Z,99.90
2019-02-27T19:19:01.253Z,99.90
2019-02-27T19:20:36.425Z,99.90
2019-02-27T19:22:11.443Z,99.90
2019-02-27T19:23:46.257Z,99.90
2019-02-27T19:25:21.029Z,99.90
2019-02-27T19:26:55.910Z,99.90
2019-02-27T19:28:30.762Z,99.90
2019-02-27T19:30:07.336Z,99.90
2019-02-27T19:31:42.615Z,99.90
2019-02-27T19:33:17.430Z,99.90
2019-02-27T19:34:52.493Z,99.90
2019-02-27T19:36:30.484Z,99.90
2019-02-27T19:38:04.359Z,99.90
2019-02-27T19:39:39.162Z,99.90
2019-02-27T19:41:14.127Z,99.90
2019-02-27T19:42:53.696Z,99.90
2019-02-27T19:44:29.206Z,99.90
2019-02-27T19:46:04.138Z,99.90
2019-02-27T19:47:38.863Z,99.90
2019-02-27T19:49:13.674Z,99.90
2019-02-27T19:50:48.525Z,99.90
2019-02-27T19:52:23.334Z,99.90
2019-02-27T19:53:58.154Z,99.90
2019-02-27T19:55:33.151Z,99.90
2019-02-27T19:57:08.536Z,99.90
2019-02-27T19:58:44.198Z,99.90
2019-02-27T20:00:21.134Z,99.90
2019-02-27T20:01:56.015Z,99.90
2019-02-27T20:03:34.780Z,99.90
2019-02-27T20:05:07.946Z,99.90
2019-02-27T20:06:42.860Z,99.90
2019-02-27T20:08:18.094Z,99.90
2019-02-27T20:09:54.485Z,99.90
2019-02-27T20:11:30.092Z,99.90
2019-02-27T20:13:06.975Z,99.90
2019-02-27T20:14:42.380Z,99.90
2019-02-27T20:16:20.110Z,99.90
2019-02-27T20:17:54.241Z,99.90
2019-02-27T20:19:29.550Z,99.90
2019-02-27T20:21:04.509Z,99.90
2019-02-27T20:22:40.023Z,99.90
2019-02-27T20:24:15.377Z,99.90
2019-02-27T20:25:50.465Z,99.90
2019-02-27T20:27:26.799Z,99.90
2019-02-27T20:29:04.170Z,99.90
2019-02-27T20:30:39.769Z,99.90
2019-02-27T20:32:14.617Z,99.90
2019-02-27T20:33:49.437Z,99.90
2019-02-27T20:35:26.200Z,99.90
2019-02-27T20:37:05.917Z,99.90
2019-02-27T20:38:38.865Z,99.90
2019-02-27T20:40:13.770Z,99.90
2019-02-27T20:41:48.789Z,99.90
2019-02-27T20:43:29.142Z,99.90
2019-02-27T20:45:00.302Z,99.90
2019-02-27T20:46:35.515Z,99.90
2019-02-27T20:48:10.594Z,99.90
2019-02-27T20:49:48.045Z,99.90
2019-02-27T20:51:23.103Z,99.90
2019-02-27T20:52:58.198Z,99.90
2019-02-27T20:54:33.248Z,99.90
2019-02-27T20:56:08.313Z,99.90
2019-02-27T20:57:43.128Z,99.90
2019-02-27T20:59:18.406Z,99.90
2019-02-27T21:00:54.174Z,99.90
2019-02-27T21:02:30.734Z,99.90
2019-02-27T21:04:05.968Z,99.90
2019-02-27T21:05:41.938Z,99.90
2019-02-27T21:07:22.246Z,99.90
2019-02-27T21:08:53.850Z,99.90
2019-02-27T21:10:28.958Z,99.90
2019-02-27T21:12:06.567Z,99.90
2019-02-27T21:13:40.698Z,99.90
2019-02-27T21:15:16.158Z,99.90
2019-02-27T21:16:55.278Z,99.90
2019-02-27T21:18:32.597Z,99.90
2019-02-27T21:20:11.211Z,99.90
2019-02-27T21:21:43.969Z,99.90
2019-02-27T21:23:19.038Z,99.90
2019-02-27T21:24:53.890Z,99.90
2019-02-27T21:26:28.720Z,99.90
2019-02-27T21:28:06.575Z,99.90
2019-02-27T21:29:43.282Z,99.90
2019-02-27T21:31:17.046Z,99.90
2019-02-27T21:32:52.269Z,99.90
2019-02-27T21:34:27.286Z,99.90
2019-02-27T21:36:03.397Z,99.90
2019-02-27T21:37:44.569Z,99.90
2019-02-27T21:39:15.838Z,99.90
2019-02-27T21:40:50.936Z,99.90
2019-02-27T21:42:26.318Z,99.90
2019-02-27T21:44:01.047Z,99.90
2019-02-27T21:45:37.564Z,99.90
2019-02-27T21:47:13.016Z,99.90
2019-02-27T21:48:47.844Z,99.90
2019-02-27T21:50:22.856Z,99.90
2019-02-27T21:51:57.677Z,99.90
2019-02-27T21:53:32.474Z,99.90
2019-02-27T21:55:12.662Z,99.90
2019-02-27T21:56:44.397Z,99.90
2019-02-27T21:58:20.693Z,99.90
2019-02-27T21:59:55.712Z,99.90
2019-02-27T22:01:30.505Z,99.90
2019-02-27T22:03:05.433Z,99.90
2019-02-27T22:04:44.073Z,99.90
2019-02-27T22:06:17.766Z,99.90
2019-02-27T22:07:52.636Z,99.90
2019-02-27T22:09:27.350Z,99.90
2019-02-27T22:11:02.137Z,99.90
2019-02-27T22:12:36.844Z,99.90
2019-02-27T22:14:12.660Z,99.90
2019-02-27T22:15:47.369Z,99.90
2019-02-27T22:17:22.082Z,99.90
2019-02-27T22:18:56.806Z,99.90
2019-02-27T22:20:31.517Z,99.90
2019-02-27T22:22:08.081Z,99.90
2019-02-27T22:23:44.894Z,99.90
2019-02-27T22:25:19.135Z,99.90
2019-02-27T22:26:53.930Z,99.90
2019-02-27T22:28:28.827Z,99.90
2019-02-27T22:30:03.966Z,99.90
2019-02-27T22:31:40.593Z,99.90
2019-02-27T22:33:15.462Z,99.90
2019-02-27T22:34:50.165Z,99.90
2019-02-27T22:36:25.015Z,99.90
2019-02-27T22:37:59.723Z,99.90
2019-02-27T22:39:34.446Z,99.90
2019-02-27T22:41:10.108Z,99.90
2019-02-27T22:42:45.443Z,99.90
2019-02-27T22:44:21.562Z,99.90
2019-02-27T22:45:56.397Z,99.90